sensor_id;sensor_type;location;lat;lon;timestamp;temperature;humidity
43810;DHT22;29440;48.208;11.162;2024-03-25T00:00:36;3.80;99.90
43810;DHT22;29440;48.208;11.162;2024-03-25T00:03:01;3.80;99.90
43810;DHT22;29440;48.208;11.162;2024-03-25T00:05:27;3.80;99.90
43810;DHT22;29440;48.208;11.162;2024-03-25T00:07:54;3.80;99.90
43810;DHT22;29440;48.208;11.162;2024-03-25T00:10:20;3.70;99.90
43810;DHT22;29440;48.208;11.162;2024-03-25T00:12:46;3.70;99.90
43810;DHT22;29440;48.208;11.162;2024-03-25T00:15:12;3.70;99.90
43810;DHT22;29440;48.208;11.162;2024-03-25T00:17:38;3.70;99.90
43810;DHT22;29440;48.208;11.162;2024-03-25T00:20:04;3.60;99.90
43810;DHT22;29440;48.208;11.162;2024-03-25T00:22:31;3.60;99.90
43810;DHT22;29440;48.208;11.162;2024-03-25T00:24:57;3.60;99.90
43810;DHT22;29440;48.208;11.162;2024-03-25T00:27:22;3.60;99.90
43810;DHT22;29440;48.208;11.162;2024-03-25T00:29:48;3.60;99.90
43810;DHT22;29440;48.208;11.162;2024-03-25T00:32:14;3.60;99.90
43810;DHT22;29440;48.208;11.162;2024-03-25T00:34:40;3.60;99.90
43810;DHT22;29440;48.208;11.162;2024-03-25T00:37:05;3.60;99.90
43810;DHT22;29440;48.208;11.162;2024-03-25T00:39:31;3.60;99.90
43810;DHT22;29440;48.208;11.162;2024-03-25T00:42:00;3.50;99.90
43810;DHT22;29440;48.208;11.162;2024-03-25T00:44:26;3.50;99.90
43810;DHT22;29440;48.208;11.162;2024-03-25T00:46:52;3.60;99.90
43810;DHT22;29440;48.208;11.162;2024-03-25T00:49:17;3.50;99.90
43810;DHT22;29440;48.208;11.162;2024-03-25T00:51:43;3.50;99.90
43810;DHT22;29440;48.208;11.162;2024-03-25T00:54:09;3.50;99.90
43810;DHT22;29440;48.208;11.162;2024-03-25T00:56:34;3.60;99.90
43810;DHT22;29440;48.208;11.162;2024-03-25T00:59:00;3.60;99.90
43810;DHT22;29440;48.208;11.162;2024-03-25T01:01:30;3.60;99.90
43810;DHT22;29440;48.208;11.162;2024-03-25T01:03:57;3.80;99.90
43810;DHT22;29440;48.208;11.162;2024-03-25T01:06:23;3.60;99.90
43810;DHT22;29440;48.208;11.162;2024-03-25T01:08:49;3.60;99.90
43810;DHT22;29440;48.208;11.162;2024-03-25T01:11:14;3.60;99.90
43810;DHT22;29440;48.208;11.162;2024-03-25T01:13:40;3.70;99.90
43810;DHT22;29440;48.208;11.162;2024-03-25T01:16:07;3.70;99.90
43810;DHT22;29440;48.208;11.162;2024-03-25T01:18:33;3.70;99.90
43810;DHT22;29440;48.208;11.162;2024-03-25T01:20:59;3.70;99.90
43810;DHT22;29440;48.208;11.162;2024-03-25T01:23:25;3.80;99.90
43810;DHT22;29440;48.208;11.162;2024-03-25T01:25:50;3.70;99.90
43810;DHT22;29440;48.208;11.162;2024-03-25T01:28:16;3.70;99.90
43810;DHT22;29440;48.208;11.162;2024-03-25T01:30:42;3.70;99.90
43810;DHT22;29440;48.208;11.162;2024-03-25T01:33:07;3.80;99.90
43810;DHT22;29440;48.208;11.162;2024-03-25T01:35:34;3.80;99.90
43810;DHT22;29440;48.208;11.162;2024-03-25T01:37:59;3.70;99.90
43810;DHT22;29440;48.208;11.162;2024-03-25T01:40:25;3.70;99.90
43810;DHT22;29440;48.208;11.162;2024-03-25T01:43:02;3.70;99.90
43810;DHT22;29440;48.208;11.162;2024-03-25T01:45:34;3.70;99.90
43810;DHT22;29440;48.208;11.162;2024-03-25T01:48:10;3.70;99.90
43810;DHT22;29440;48.208;11.162;2024-03-25T01:50:40;3.70;99.90
43810;DHT22;29440;48.208;11.162;2024-03-25T01:53:07;3.70;99.90
43810;DHT22;29440;48.208;11.162;2024-03-25T01:55:34;3.70;99.90
43810;DHT22;29440;48.208;11.162;2024-03-25T01:58:01;3.70;99.90
43810;DHT22;29440;48.208;11.162;2024-03-25T02:00:27;3.60;99.90
43810;DHT22;29440;48.208;11.162;2024-03-25T02:02:52;3.60;99.90
43810;DHT22;29440;48.208;11.162;2024-03-25T02:05:19;3.60;99.90
43810;DHT22;29440;48.208;11.162;2024-03-25T02:07:45;3.60;99.90
43810;DHT22;29440;48.208;11.162;2024-03-25T02:10:11;3.60;99.90
43810;DHT22;29440;48.208;11.162;2024-03-25T02:12:44;3.60;99.90
43810;DHT22;29440;48.208;11.162;2024-03-25T02:15:11;3.60;99.90
43810;DHT22;29440;48.208;11.162;2024-03-25T02:17:39;3.60;99.90
43810;DHT22;29440;48.208;11.162;2024-03-25T02:20:06;3.60;99.90
43810;DHT22;29440;48.208;11.162;2024-03-25T02:22:34;3.60;99.90
43810;DHT22;29440;48.208;11.162;2024-03-25T02:25:00;3.60;99.90
43810;DHT22;29440;48.208;11.162;2024-03-25T02:27:27;3.60;99.90
43810;DHT22;29440;48.208;11.162;2024-03-25T02:30:10;3.60;99.90
43810;DHT22;29440;48.208;11.162;2024-03-25T02:32:39;3.60;99.90
43810;DHT22;29440;48.208;11.162;2024-03-25T02:35:07;3.60;99.90
43810;DHT22;29440;48.208;11.162;2024-03-25T02:37:33;3.60;99.90
43810;DHT22;29440;48.208;11.162;2024-03-25T02:40:01;3.60;99.90
43810;DHT22;29440;48.208;11.162;2024-03-25T02:42:29;3.60;99.90
43810;DHT22;29440;48.208;11.162;2024-03-25T02:44:55;3.60;99.90
43810;DHT22;29440;48.208;11.162;2024-03-25T02:47:21;3.60;99.90
43810;DHT22;29440;48.208;11.162;2024-03-25T02:49:47;3.60;99.90
43810;DHT22;29440;48.208;11.162;2024-03-25T02:52:13;3.60;99.90
43810;DHT22;29440;48.208;11.162;2024-03-25T02:54:38;3.60;99.90
43810;DHT22;29440;48.208;11.162;2024-03-25T02:57:05;3.60;99.90
43810;DHT22;29440;48.208;11.162;2024-03-25T02:59:30;3.60;99.90
43810;DHT22;29440;48.208;11.162;2024-03-25T03:01:56;3.60;99.90
43810;DHT22;29440;48.208;11.162;2024-03-25T03:04:22;3.60;99.90
43810;DHT22;29440;48.208;11.162;2024-03-25T03:06:48;3.50;99.90
43810;DHT22;29440;48.208;11.162;2024-03-25T03:09:13;3.70;99.90
43810;DHT22;29440;48.208;11.162;2024-03-25T03:11:39;3.50;99.90
43810;DHT22;29440;48.208;11.162;2024-03-25T03:14:04;3.50;99.90
43810;DHT22;29440;48.208;11.162;2024-03-25T03:16:30;3.50;99.90
43810;DHT22;29440;48.208;11.162;2024-03-25T03:18:56;3.50;99.90
43810;DHT22;29440;48.208;11.162;2024-03-25T03:21:21;3.40;99.90
43810;DHT22;29440;48.208;11.162;2024-03-25T03:23:47;3.40;99.90
43810;DHT22;29440;48.208;11.162;2024-03-25T03:26:13;3.40;99.90
43810;DHT22;29440;48.208;11.162;2024-03-25T03:28:40;3.30;99.90
43810;DHT22;29440;48.208;11.162;2024-03-25T03:31:06;3.30;99.90
43810;DHT22;29440;48.208;11.162;2024-03-25T03:33:32;3.20;99.90
43810;DHT22;29440;48.208;11.162;2024-03-25T03:35:59;3.20;99.90
43810;DHT22;29440;48.208;11.162;2024-03-25T03:38:24;3.10;99.90
43810;DHT22;29440;48.208;11.162;2024-03-25T03:41:01;3.10;99.90
43810;DHT22;29440;48.208;11.162;2024-03-25T03:43:27;3.10;99.90
43810;DHT22;29440;48.208;11.162;2024-03-25T03:45:53;3.00;99.90
43810;DHT22;29440;48.208;11.162;2024-03-25T03:48:19;3.00;99.90
43810;DHT22;29440;48.208;11.162;2024-03-25T03:50:45;3.10;99.90
43810;DHT22;29440;48.208;11.162;2024-03-25T03:53:11;2.90;99.90
43810;DHT22;29440;48.208;11.162;2024-03-25T03:55:37;2.90;99.90
43810;DHT22;29440;48.208;11.162;2024-03-25T03:58:03;3.00;99.90
43810;DHT22;29440;48.208;11.162;2024-03-25T04:00:29;2.90;99.90
43810;DHT22;29440;48.208;11.162;2024-03-25T04:02:54;2.90;99.90
43810;DHT22;29440;48.208;11.162;2024-03-25T04:05:20;2.90;99.90
43810;DHT22;29440;48.208;11.162;2024-03-25T04:07:46;2.90;99.90
43810;DHT22;29440;48.208;11.162;2024-03-25T04:10:12;2.90;99.90
43810;DHT22;29440;48.208;11.162;2024-03-25T04:12:39;2.90;99.90
43810;DHT22;29440;48.208;11.162;2024-03-25T04:15:07;2.80;99.90
43810;DHT22;29440;48.208;11.162;2024-03-25T04:17:33;2.90;99.90
43810;DHT22;29440;48.208;11.162;2024-03-25T04:19:59;2.90;99.90
43810;DHT22;29440;48.208;11.162;2024-03-25T04:22:33;2.80;99.90
43810;DHT22;29440;48.208;11.162;2024-03-25T04:24:59;2.80;99.90
43810;DHT22;29440;48.208;11.162;2024-03-25T04:27:24;2.80;99.90
43810;DHT22;29440;48.208;11.162;2024-03-25T04:29:52;2.80;99.90
43810;DHT22;29440;48.208;11.162;2024-03-25T04:32:17;2.70;99.90
43810;DHT22;29440;48.208;11.162;2024-03-25T04:34:43;2.70;99.90
43810;DHT22;29440;48.208;11.162;2024-03-25T04:37:09;2.70;99.90
43810;DHT22;29440;48.208;11.162;2024-03-25T04:39:35;2.70;99.90
43810;DHT22;29440;48.208;11.162;2024-03-25T04:42:01;2.70;99.90
43810;DHT22;29440;48.208;11.162;2024-03-25T04:44:29;2.60;99.90
43810;DHT22;29440;48.208;11.162;2024-03-25T04:46:55;2.60;99.90
43810;DHT22;29440;48.208;11.162;2024-03-25T04:49:21;2.60;99.90
43810;DHT22;29440;48.208;11.162;2024-03-25T04:51:47;2.60;99.90
43810;DHT22;29440;48.208;11.162;2024-03-25T04:54:13;2.50;99.90
43810;DHT22;29440;48.208;11.162;2024-03-25T04:56:39;2.50;99.90
43810;DHT22;29440;48.208;11.162;2024-03-25T04:59:05;2.50;99.90
43810;DHT22;29440;48.208;11.162;2024-03-25T05:01:31;2.50;99.90
43810;DHT22;29440;48.208;11.162;2024-03-25T05:03:57;2.50;99.90
43810;DHT22;29440;48.208;11.162;2024-03-25T05:06:22;2.50;99.90
43810;DHT22;29440;48.208;11.162;2024-03-25T05:08:48;2.50;99.90
43810;DHT22;29440;48.208;11.162;2024-03-25T05:11:15;2.50;99.90
43810;DHT22;29440;48.208;11.162;2024-03-25T05:13:41;2.50;99.90
43810;DHT22;29440;48.208;11.162;2024-03-25T05:16:07;2.50;99.90
43810;DHT22;29440;48.208;11.162;2024-03-25T05:18:33;2.50;99.90
43810;DHT22;29440;48.208;11.162;2024-03-25T05:20:58;2.50;99.90
43810;DHT22;29440;48.208;11.162;2024-03-25T05:23:24;2.50;99.90
43810;DHT22;29440;48.208;11.162;2024-03-25T05:25:49;2.50;99.90
43810;DHT22;29440;48.208;11.162;2024-03-25T05:28:15;2.50;99.90
43810;DHT22;29440;48.208;11.162;2024-03-25T05:30:40;2.50;99.90
43810;DHT22;29440;48.208;11.162;2024-03-25T05:33:06;2.50;99.90
43810;DHT22;29440;48.208;11.162;2024-03-25T05:35:31;2.60;99.90
43810;DHT22;29440;48.208;11.162;2024-03-25T05:38:00;2.60;99.90
43810;DHT22;29440;48.208;11.162;2024-03-25T05:40:26;2.70;99.90
43810;DHT22;29440;48.208;11.162;2024-03-25T05:42:52;2.70;99.90
43810;DHT22;29440;48.208;11.162;2024-03-25T05:45:17;2.80;99.90
43810;DHT22;29440;48.208;11.162;2024-03-25T05:47:43;2.90;99.90
43810;DHT22;29440;48.208;11.162;2024-03-25T05:50:09;3.20;99.90
43810;DHT22;29440;48.208;11.162;2024-03-25T05:52:36;3.60;99.90
43810;DHT22;29440;48.208;11.162;2024-03-25T05:55:02;3.90;99.90
43810;DHT22;29440;48.208;11.162;2024-03-25T05:57:27;4.40;99.90
43810;DHT22;29440;48.208;11.162;2024-03-25T05:59:53;4.90;99.90
43810;DHT22;29440;48.208;11.162;2024-03-25T06:02:19;5.50;99.90
43810;DHT22;29440;48.208;11.162;2024-03-25T06:04:45;6.00;99.90
43810;DHT22;29440;48.208;11.162;2024-03-25T06:07:11;6.20;99.90
43810;DHT22;29440;48.208;11.162;2024-03-25T06:09:36;6.30;99.90
43810;DHT22;29440;48.208;11.162;2024-03-25T06:12:02;6.50;99.90
43810;DHT22;29440;48.208;11.162;2024-03-25T06:14:28;6.80;99.90
43810;DHT22;29440;48.208;11.162;2024-03-25T06:16:54;7.30;99.90
43810;DHT22;29440;48.208;11.162;2024-03-25T06:19:19;7.70;99.90
43810;DHT22;29440;48.208;11.162;2024-03-25T06:21:45;8.00;99.90
43810;DHT22;29440;48.208;11.162;2024-03-25T06:24:11;8.20;99.90
43810;DHT22;29440;48.208;11.162;2024-03-25T06:26:37;8.60;99.90
43810;DHT22;29440;48.208;11.162;2024-03-25T06:29:03;9.10;99.90
43810;DHT22;29440;48.208;11.162;2024-03-25T06:31:30;9.70;99.90
43810;DHT22;29440;48.208;11.162;2024-03-25T06:34:14;10.10;99.90
43810;DHT22;29440;48.208;11.162;2024-03-25T06:36:41;10.60;99.90
43810;DHT22;29440;48.208;11.162;2024-03-25T06:39:06;10.60;99.90
43810;DHT22;29440;48.208;11.162;2024-03-25T06:41:32;10.30;99.90
43810;DHT22;29440;48.208;11.162;2024-03-25T06:43:58;10.50;99.90
43810;DHT22;29440;48.208;11.162;2024-03-25T06:46:24;10.90;99.90
43810;DHT22;29440;48.208;11.162;2024-03-25T06:48:49;11.40;99.90
43810;DHT22;29440;48.208;11.162;2024-03-25T06:51:15;11.90;99.90
43810;DHT22;29440;48.208;11.162;2024-03-25T06:53:41;12.30;99.90
43810;DHT22;29440;48.208;11.162;2024-03-25T06:56:06;12.60;99.90
43810;DHT22;29440;48.208;11.162;2024-03-25T06:58:32;12.90;99.90
43810;DHT22;29440;48.208;11.162;2024-03-25T07:01:04;13.40;99.90
43810;DHT22;29440;48.208;11.162;2024-03-25T07:03:31;13.90;99.90
43810;DHT22;29440;48.208;11.162;2024-03-25T07:05:56;14.30;99.90
43810;DHT22;29440;48.208;11.162;2024-03-25T07:08:22;14.70;99.90
43810;DHT22;29440;48.208;11.162;2024-03-25T07:10:48;14.80;99.90
43810;DHT22;29440;48.208;11.162;2024-03-25T07:13:14;14.90;98.40
43810;DHT22;29440;48.208;11.162;2024-03-25T07:15:39;15.00;98.50
43810;DHT22;29440;48.208;11.162;2024-03-25T07:18:05;15.00;98.50
43810;DHT22;29440;48.208;11.162;2024-03-25T07:20:32;15.20;98.10
43810;DHT22;29440;48.208;11.162;2024-03-25T07:22:57;15.10;97.30
43810;DHT22;29440;48.208;11.162;2024-03-25T07:25:24;15.30;97.20
43810;DHT22;29440;48.208;11.162;2024-03-25T07:27:58;15.50;97.90
43810;DHT22;29440;48.208;11.162;2024-03-25T07:30:23;15.90;97.60
43810;DHT22;29440;48.208;11.162;2024-03-25T07:32:53;16.20;96.30
43810;DHT22;29440;48.208;11.162;2024-03-25T07:35:19;16.40;95.70
43810;DHT22;29440;48.208;11.162;2024-03-25T07:37:45;16.60;94.80
43810;DHT22;29440;48.208;11.162;2024-03-25T07:40:10;16.70;95.10
43810;DHT22;29440;48.208;11.162;2024-03-25T07:42:37;16.60;93.40
43810;DHT22;29440;48.208;11.162;2024-03-25T07:45:03;16.60;94.40
43810;DHT22;29440;48.208;11.162;2024-03-25T07:47:30;16.90;94.50
43810;DHT22;29440;48.208;11.162;2024-03-25T07:49:56;17.20;93.60
43810;DHT22;29440;48.208;11.162;2024-03-25T07:52:21;17.30;92.70
43810;DHT22;29440;48.208;11.162;2024-03-25T07:54:47;16.40;91.60
43810;DHT22;29440;48.208;11.162;2024-03-25T07:57:12;16.60;93.30
43810;DHT22;29440;48.208;11.162;2024-03-25T07:59:38;16.60;92.60
43810;DHT22;29440;48.208;11.162;2024-03-25T08:02:04;16.60;92.20
43810;DHT22;29440;48.208;11.162;2024-03-25T08:04:29;16.40;92.60
43810;DHT22;29440;48.208;11.162;2024-03-25T08:06:55;16.70;92.10
43810;DHT22;29440;48.208;11.162;2024-03-25T08:09:20;16.80;92.30
43810;DHT22;29440;48.208;11.162;2024-03-25T08:11:46;16.90;92.50
43810;DHT22;29440;48.208;11.162;2024-03-25T08:14:12;17.20;93.50
43810;DHT22;29440;48.208;11.162;2024-03-25T08:16:37;17.30;91.90
43810;DHT22;29440;48.208;11.162;2024-03-25T08:19:03;17.60;91.60
43810;DHT22;29440;48.208;11.162;2024-03-25T08:21:29;17.70;91.60
43810;DHT22;29440;48.208;11.162;2024-03-25T08:23:54;18.10;91.20
43810;DHT22;29440;48.208;11.162;2024-03-25T08:26:20;18.00;90.40
43810;DHT22;29440;48.208;11.162;2024-03-25T08:28:46;18.00;90.80
43810;DHT22;29440;48.208;11.162;2024-03-25T08:31:11;18.20;90.10
43810;DHT22;29440;48.208;11.162;2024-03-25T08:33:37;18.00;90.70
43810;DHT22;29440;48.208;11.162;2024-03-25T08:36:02;17.80;90.50
43810;DHT22;29440;48.208;11.162;2024-03-25T08:38:29;17.50;88.50
43810;DHT22;29440;48.208;11.162;2024-03-25T08:40:54;17.40;90.80
43810;DHT22;29440;48.208;11.162;2024-03-25T08:43:20;17.10;90.50
43810;DHT22;29440;48.208;11.162;2024-03-25T08:45:45;16.90;91.00
43810;DHT22;29440;48.208;11.162;2024-03-25T08:48:12;16.60;91.90
43810;DHT22;29440;48.208;11.162;2024-03-25T08:50:37;16.30;91.30
43810;DHT22;29440;48.208;11.162;2024-03-25T08:53:03;16.00;90.90
43810;DHT22;29440;48.208;11.162;2024-03-25T08:55:29;15.80;91.80
43810;DHT22;29440;48.208;11.162;2024-03-25T08:57:55;15.70;92.90
43810;DHT22;29440;48.208;11.162;2024-03-25T09:00:20;15.40;92.70
43810;DHT22;29440;48.208;11.162;2024-03-25T09:02:47;15.30;93.20
43810;DHT22;29440;48.208;11.162;2024-03-25T09:05:14;15.30;94.00
43810;DHT22;29440;48.208;11.162;2024-03-25T09:07:44;15.20;91.40
43810;DHT22;29440;48.208;11.162;2024-03-25T09:10:10;15.10;92.10
43810;DHT22;29440;48.208;11.162;2024-03-25T09:12:53;15.10;93.10
43810;DHT22;29440;48.208;11.162;2024-03-25T09:15:19;15.00;93.20
43810;DHT22;29440;48.208;11.162;2024-03-25T09:17:44;14.80;92.70
43810;DHT22;29440;48.208;11.162;2024-03-25T09:20:10;14.70;93.10
43810;DHT22;29440;48.208;11.162;2024-03-25T09:22:45;14.30;92.70
43810;DHT22;29440;48.208;11.162;2024-03-25T09:25:11;14.20;93.40
43810;DHT22;29440;48.208;11.162;2024-03-25T09:27:36;14.00;93.20
43810;DHT22;29440;48.208;11.162;2024-03-25T09:30:03;13.90;92.70
43810;DHT22;29440;48.208;11.162;2024-03-25T09:32:31;13.50;92.70
43810;DHT22;29440;48.208;11.162;2024-03-25T09:34:57;13.60;93.30
43810;DHT22;29440;48.208;11.162;2024-03-25T09:37:23;13.40;93.00
43810;DHT22;29440;48.208;11.162;2024-03-25T09:39:48;13.40;93.30
43810;DHT22;29440;48.208;11.162;2024-03-25T09:45:07;13.50;92.10
43810;DHT22;29440;48.208;11.162;2024-03-25T09:47:33;13.50;92.90
43810;DHT22;29440;48.208;11.162;2024-03-25T09:49:59;13.20;91.60
43810;DHT22;29440;48.208;11.162;2024-03-25T09:52:27;13.20;91.20
43810;DHT22;29440;48.208;11.162;2024-03-25T09:54:53;13.20;92.30
43810;DHT22;29440;48.208;11.162;2024-03-25T09:57:19;13.20;93.90
43810;DHT22;29440;48.208;11.162;2024-03-25T09:59:44;13.20;92.10
43810;DHT22;29440;48.208;11.162;2024-03-25T10:02:12;13.10;91.50
43810;DHT22;29440;48.208;11.162;2024-03-25T10:04:46;12.90;92.70
43810;DHT22;29440;48.208;11.162;2024-03-25T10:07:16;12.70;92.50
43810;DHT22;29440;48.208;11.162;2024-03-25T10:09:46;12.60;90.70
43810;DHT22;29440;48.208;11.162;2024-03-25T10:12:12;12.50;93.50
43810;DHT22;29440;48.208;11.162;2024-03-25T10:14:40;12.60;92.20
43810;DHT22;29440;48.208;11.162;2024-03-25T10:17:05;12.70;93.70
43810;DHT22;29440;48.208;11.162;2024-03-25T10:19:33;12.80;92.10
43810;DHT22;29440;48.208;11.162;2024-03-25T10:22:06;12.70;90.90
43810;DHT22;29440;48.208;11.162;2024-03-25T10:24:42;12.60;89.30
43810;DHT22;29440;48.208;11.162;2024-03-25T10:27:26;12.50;90.40
43810;DHT22;29440;48.208;11.162;2024-03-25T10:29:53;12.50;92.80
43810;DHT22;29440;48.208;11.162;2024-03-25T10:32:20;12.30;92.00
43810;DHT22;29440;48.208;11.162;2024-03-25T10:34:47;12.30;92.30
43810;DHT22;29440;48.208;11.162;2024-03-25T10:37:13;12.40;91.70
43810;DHT22;29440;48.208;11.162;2024-03-25T10:39:50;12.50;93.80
43810;DHT22;29440;48.208;11.162;2024-03-25T10:42:20;12.70;93.70
43810;DHT22;29440;48.208;11.162;2024-03-25T10:44:49;12.80;91.30
43810;DHT22;29440;48.208;11.162;2024-03-25T10:47:20;12.70;91.10
43810;DHT22;29440;48.208;11.162;2024-03-25T10:49:49;12.80;91.30
43810;DHT22;29440;48.208;11.162;2024-03-25T10:52:16;12.60;89.90
43810;DHT22;29440;48.208;11.162;2024-03-25T10:54:43;12.30;90.10
43810;DHT22;29440;48.208;11.162;2024-03-25T10:57:13;12.40;92.00
43810;DHT22;29440;48.208;11.162;2024-03-25T10:59:39;12.30;88.60
43810;DHT22;29440;48.208;11.162;2024-03-25T11:02:10;12.30;89.40
43810;DHT22;29440;48.208;11.162;2024-03-25T11:04:36;12.30;91.10
43810;DHT22;29440;48.208;11.162;2024-03-25T11:07:15;12.30;89.60
43810;DHT22;29440;48.208;11.162;2024-03-25T11:09:41;12.10;91.10
43810;DHT22;29440;48.208;11.162;2024-03-25T11:12:10;12.20;91.00
43810;DHT22;29440;48.208;11.162;2024-03-25T11:14:36;12.30;90.50
43810;DHT22;29440;48.208;11.162;2024-03-25T11:17:01;12.20;91.80
43810;DHT22;29440;48.208;11.162;2024-03-25T11:19:28;12.30;91.30
43810;DHT22;29440;48.208;11.162;2024-03-25T11:22:06;12.20;89.30
43810;DHT22;29440;48.208;11.162;2024-03-25T11:24:32;12.20;92.30
43810;DHT22;29440;48.208;11.162;2024-03-25T11:26:58;12.30;91.50
43810;DHT22;29440;48.208;11.162;2024-03-25T11:29:26;12.20;89.30
43810;DHT22;29440;48.208;11.162;2024-03-25T11:31:52;12.30;92.60
43810;DHT22;29440;48.208;11.162;2024-03-25T11:34:19;12.40;88.00
43810;DHT22;29440;48.208;11.162;2024-03-25T11:36:44;12.50;90.90
43810;DHT22;29440;48.208;11.162;2024-03-25T11:39:11;12.60;89.00
43810;DHT22;29440;48.208;11.162;2024-03-25T11:41:44;12.70;89.80
43810;DHT22;29440;48.208;11.162;2024-03-25T11:44:11;12.70;87.70
43810;DHT22;29440;48.208;11.162;2024-03-25T11:46:38;12.70;87.50
43810;DHT22;29440;48.208;11.162;2024-03-25T11:49:06;12.80;87.20
43810;DHT22;29440;48.208;11.162;2024-03-25T11:51:35;12.90;89.40
43810;DHT22;29440;48.208;11.162;2024-03-25T11:54:04;12.90;89.20
43810;DHT22;29440;48.208;11.162;2024-03-25T11:56:33;12.90;90.00
43810;DHT22;29440;48.208;11.162;2024-03-25T11:59:02;12.90;88.50
43810;DHT22;29440;48.208;11.162;2024-03-25T12:01:31;12.80;87.70
43810;DHT22;29440;48.208;11.162;2024-03-25T12:03:57;12.90;87.60
43810;DHT22;29440;48.208;11.162;2024-03-25T12:06:22;13.00;90.10
43810;DHT22;29440;48.208;11.162;2024-03-25T12:08:48;13.10;90.40
43810;DHT22;29440;48.208;11.162;2024-03-25T12:11:33;13.20;88.50
43810;DHT22;29440;48.208;11.162;2024-03-25T12:13:59;13.10;86.60
43810;DHT22;29440;48.208;11.162;2024-03-25T12:16:25;13.00;82.60
43810;DHT22;29440;48.208;11.162;2024-03-25T12:18:52;12.90;83.50
43810;DHT22;29440;48.208;11.162;2024-03-25T12:21:19;12.60;86.00
43810;DHT22;29440;48.208;11.162;2024-03-25T12:23:45;12.30;85.90
43810;DHT22;29440;48.208;11.162;2024-03-25T12:26:12;11.90;84.80
43810;DHT22;29440;48.208;11.162;2024-03-25T12:28:39;11.70;87.90
43810;DHT22;29440;48.208;11.162;2024-03-25T12:31:07;11.80;88.80
43810;DHT22;29440;48.208;11.162;2024-03-25T12:33:43;11.80;89.70
43810;DHT22;29440;48.208;11.162;2024-03-25T12:36:11;11.80;90.90
43810;DHT22;29440;48.208;11.162;2024-03-25T12:38:37;12.00;89.50
43810;DHT22;29440;48.208;11.162;2024-03-25T12:41:09;12.00;88.30
43810;DHT22;29440;48.208;11.162;2024-03-25T12:43:41;12.00;90.10
43810;DHT22;29440;48.208;11.162;2024-03-25T12:46:06;12.10;89.10
43810;DHT22;29440;48.208;11.162;2024-03-25T12:48:34;12.20;89.70
43810;DHT22;29440;48.208;11.162;2024-03-25T12:51:00;12.30;89.20
43810;DHT22;29440;48.208;11.162;2024-03-25T12:53:25;12.20;87.40
43810;DHT22;29440;48.208;11.162;2024-03-25T12:55:52;12.30;90.70
43810;DHT22;29440;48.208;11.162;2024-03-25T12:58:17;12.30;85.30
43810;DHT22;29440;48.208;11.162;2024-03-25T13:00:43;12.10;84.60
43810;DHT22;29440;48.208;11.162;2024-03-25T13:03:09;12.10;87.80
43810;DHT22;29440;48.208;11.162;2024-03-25T13:05:35;12.00;88.00
43810;DHT22;29440;48.208;11.162;2024-03-25T13:08:02;12.10;90.00
43810;DHT22;29440;48.208;11.162;2024-03-25T13:10:28;12.20;91.00
43810;DHT22;29440;48.208;11.162;2024-03-25T13:12:54;12.50;91.20
43810;DHT22;29440;48.208;11.162;2024-03-25T13:15:20;12.40;86.50
43810;DHT22;29440;48.208;11.162;2024-03-25T13:17:46;12.40;85.60
43810;DHT22;29440;48.208;11.162;2024-03-25T13:20:12;12.50;86.70
43810;DHT22;29440;48.208;11.162;2024-03-25T13:22:37;12.40;85.80
43810;DHT22;29440;48.208;11.162;2024-03-25T13:25:04;12.40;87.70
43810;DHT22;29440;48.208;11.162;2024-03-25T13:27:30;12.40;87.90
43810;DHT22;29440;48.208;11.162;2024-03-25T13:29:56;12.40;84.40
43810;DHT22;29440;48.208;11.162;2024-03-25T13:32:22;12.30;86.20
43810;DHT22;29440;48.208;11.162;2024-03-25T13:34:48;12.20;87.00
43810;DHT22;29440;48.208;11.162;2024-03-25T13:37:14;12.30;85.90
43810;DHT22;29440;48.208;11.162;2024-03-25T13:39:39;12.10;84.50
43810;DHT22;29440;48.208;11.162;2024-03-25T13:42:05;11.90;89.80
43810;DHT22;29440;48.208;11.162;2024-03-25T13:44:36;11.90;88.50
43810;DHT22;29440;48.208;11.162;2024-03-25T13:47:01;12.00;86.40
43810;DHT22;29440;48.208;11.162;2024-03-25T13:49:27;12.10;88.10
43810;DHT22;29440;48.208;11.162;2024-03-25T13:51:58;12.00;86.50
43810;DHT22;29440;48.208;11.162;2024-03-25T13:54:26;11.90;87.00
43810;DHT22;29440;48.208;11.162;2024-03-25T13:56:52;11.80;86.20
43810;DHT22;29440;48.208;11.162;2024-03-25T13:59:18;11.80;85.90
43810;DHT22;29440;48.208;11.162;2024-03-25T14:01:44;11.80;86.40
43810;DHT22;29440;48.208;11.162;2024-03-25T14:04:10;11.80;87.30
43810;DHT22;29440;48.208;11.162;2024-03-25T14:06:36;11.80;86.70
43810;DHT22;29440;48.208;11.162;2024-03-25T14:09:02;11.70;86.30
43810;DHT22;29440;48.208;11.162;2024-03-25T14:11:31;11.70;87.30
43810;DHT22;29440;48.208;11.162;2024-03-25T14:13:57;11.70;87.30
43810;DHT22;29440;48.208;11.162;2024-03-25T14:16:22;11.70;88.30
43810;DHT22;29440;48.208;11.162;2024-03-25T14:18:48;11.70;87.20
43810;DHT22;29440;48.208;11.162;2024-03-25T14:21:13;11.60;86.00
43810;DHT22;29440;48.208;11.162;2024-03-25T14:23:39;11.60;87.10
43810;DHT22;29440;48.208;11.162;2024-03-25T14:26:09;11.60;85.20
43810;DHT22;29440;48.208;11.162;2024-03-25T14:28:35;11.60;85.80
43810;DHT22;29440;48.208;11.162;2024-03-25T14:31:00;11.60;86.50
43810;DHT22;29440;48.208;11.162;2024-03-25T14:33:26;11.60;84.90
43810;DHT22;29440;48.208;11.162;2024-03-25T14:35:52;11.60;85.00
43810;DHT22;29440;48.208;11.162;2024-03-25T14:38:17;11.60;84.00
43810;DHT22;29440;48.208;11.162;2024-03-25T14:40:43;11.70;85.30
43810;DHT22;29440;48.208;11.162;2024-03-25T14:43:08;11.70;84.50
43810;DHT22;29440;48.208;11.162;2024-03-25T14:45:34;11.60;83.30
43810;DHT22;29440;48.208;11.162;2024-03-25T14:47:59;11.60;83.30
43810;DHT22;29440;48.208;11.162;2024-03-25T14:50:25;11.70;85.00
43810;DHT22;29440;48.208;11.162;2024-03-25T14:52:50;11.60;86.80
43810;DHT22;29440;48.208;11.162;2024-03-25T14:55:16;11.60;86.50
43810;DHT22;29440;48.208;11.162;2024-03-25T14:57:42;11.60;88.20
43810;DHT22;29440;48.208;11.162;2024-03-25T15:00:07;11.80;85.30
43810;DHT22;29440;48.208;11.162;2024-03-25T15:02:34;11.70;84.30
43810;DHT22;29440;48.208;11.162;2024-03-25T15:04:59;11.60;83.90
43810;DHT22;29440;48.208;11.162;2024-03-25T15:07:26;11.60;84.30
43810;DHT22;29440;48.208;11.162;2024-03-25T15:09:51;11.50;84.20
43810;DHT22;29440;48.208;11.162;2024-03-25T15:12:17;11.50;86.10
43810;DHT22;29440;48.208;11.162;2024-03-25T15:14:43;11.50;87.40
43810;DHT22;29440;48.208;11.162;2024-03-25T15:17:08;11.50;85.30
43810;DHT22;29440;48.208;11.162;2024-03-25T15:19:34;11.40;83.80
43810;DHT22;29440;48.208;11.162;2024-03-25T15:21:59;11.40;84.60